Bookmark and Share
Track history (hours):
 

Delta Pioneer

Last reported at 2014-Apr-24 18:19 UTC. Time now 2014-Apr-24 19:32 UTC.
Position N 51°53' E 004°17'.

Length 249 m; draft 12.8 m.

Type: Tanker. MMSI: 240244000.

NotesDate/timePositionNaut miles runAvg speedWind from/ knotsBaromVisibWave heightAir tempDewpointWater temp
2014-Apr-24 18:19N 51°53' E 004°17'0 0.0
2014-Apr-24 17:23N 51°53' E 004°17'0 0.0
2014-Apr-24 16:19N 51°53' E 004°17'0 0.0
2014-Apr-24 15:19N 51°53' E 004°17'0 0.0
2014-Apr-24 14:25N 51°53' E 004°17'0 0.0
2014-Apr-24 13:25N 51°53' E 004°17'0 0.0
2014-Apr-24 12:19N 51°53' E 004°17'0 0.0
2014-Apr-24 11:31N 51°53' E 004°17'0 0.1
2014-Apr-24 10:33N 51°53' E 004°17'2 2.2
2014-Apr-24 09:33N 51°55' E 004°15'7 6.6
2014-Apr-24 08:33N 51°59' E 004°06'3 2.7
2014-Apr-24 07:33N 51°60' E 004°02'8 7.8
2014-Apr-24 06:33N 51°55' E 004°12'0 0.4
2014-Apr-24 05:31N 51°55' E 004°13'0 0.0
2014-Apr-24 04:31N 51°55' E 004°13'0 0.0
2014-Apr-24 03:31N 51°55' E 004°13'0 0.0
2014-Apr-24 02:25N 51°55' E 004°13'0 0.0
2014-Apr-24 01:31N 51°55' E 004°13'0 0.0
2014-Apr-24 00:28N 51°55' E 004°13'0 0.0
2014-Apr-23 23:31N 51°55' E 004°13'0 0.0
2014-Apr-23 22:25N 51°55' E 004°13'0 0.0
2014-Apr-23 21:22N 51°55' E 004°13'0 0.0
2014-Apr-23 20:31N 51°55' E 004°13'0 0.0
2014-Apr-23 19:31N 51°55' E 004°13'0 0.0
2014-Apr-23 18:31N 51°55' E 004°13'0 0.0
2014-Apr-23 17:31N 51°55' E 004°13'0 0.0
2014-Apr-23 16:31N 51°55' E 004°13'0 0.0
2014-Apr-23 15:31N 51°55' E 004°13'0 0.0
2014-Apr-23 14:25N 51°55' E 004°13'0 0.0
2014-Apr-23 13:31N 51°55' E 004°13'0 0.0
2014-Apr-23 12:31N 51°55' E 004°13'0 0.0
2014-Apr-23 11:31N 51°55' E 004°13'0 0.0
2014-Apr-23 10:31N 51°55' E 004°13'0 0.0
2014-Apr-23 09:31N 51°55' E 004°13'0 0.0
2014-Apr-23 08:31N 51°55' E 004°13'0 0.0
2014-Apr-23 07:31N 51°55' E 004°13'0 0.0
2014-Apr-23 06:28N 51°55' E 004°13'0 0.0
2014-Apr-23 05:25N 51°55' E 004°13'0 0.0
2014-Apr-23 04:31N 51°55' E 004°13'0 0.0
2014-Apr-23 03:31N 51°55' E 004°13'0 0.0
2014-Apr-23 02:19N 51°55' E 004°13'0 0.3
2014-Apr-23 01:33N 51°55' E 004°13'4 4.0
2014-Apr-23 00:33N 51°58' E 004°08'1010.2
2014-Apr-22 23:34N 52°02' E 003°52'2210.3
2014-Apr-22 21:27N 51°55' E 003°19'1111.7
2014-Apr-22 20:33N 51°54' E 003°01'37510.1
2014-Apr-21 07:24N 57°23' E 008°10'910.6
2014-Apr-21 06:33N 57°29' E 008°23'1010.4
2014-Apr-21 05:33N 57°33' E 008°40'1110.5
2014-Apr-21 04:34N 57°37' E 008°59'4210.5
2014-Apr-21 00:32N 57°48' E 010°15'1111.4
2014-Apr-20 23:33N 57°48' E 010°36'1111.0
2014-Apr-20 22:33N 57°44' E 010°55'1111.3
2014-Apr-20 21:34N 57°36' E 011°11'1111.2
2014-Apr-20 20:34N 57°28' E 011°26'1211.4
2014-Apr-20 19:32N 57°17' E 011°33'162 9.3
2014-Apr-20 02:10N 54°36' E 011°10'712.1
2014-Apr-20 01:33N 54°33' E 011°21'1211.9
2014-Apr-20 00:34N 54°28' E 011°40'1211.7
2014-Apr-19 23:33N 54°26' E 011°60'9 9.4
2014-Apr-19 22:34N 54°31' E 012°13'9 8.8
2014-Apr-19 21:34N 54°38' E 012°22'1110.8
2014-Apr-19 20:34N 54°44' E 012°38'1111.0
2014-Apr-19 19:34N 54°49' E 012°54'1111.1
2014-Apr-19 18:33N 54°54' E 013°12'1111.3
2014-Apr-19 17:34N 54°57' E 013°31'1111.0
2014-Apr-19 16:33N 55°01' E 013°49'1110.6
2014-Apr-19 15:33N 55°05' E 014°06'1110.7
2014-Apr-19 14:33N 55°14' E 014°17'1110.9
2014-Apr-19 13:33N 55°22' E 014°29'1110.7
2014-Apr-19 12:34N 55°29' E 014°43'1111.0
2014-Apr-19 11:33N 55°34' E 015°01'1110.9
2014-Apr-19 10:33N 55°38' E 015°19'1110.9
2014-Apr-19 09:31N 55°41' E 015°38'1010.7
2014-Apr-19 08:32N 55°44' E 015°56'1110.9
2014-Apr-19 07:34N 55°47' E 016°14'1110.8
2014-Apr-19 06:34N 55°49' E 016°33'1110.7
2014-Apr-19 05:34N 55°52' E 016°52'29810.5
2014-Apr-18 01:08N 59°34' E 023°02'611.0
2014-Apr-18 00:33N 59°36' E 023°14'1110.9
2014-Apr-17 23:33N 59°39' E 023°35'1111.1
2014-Apr-17 22:33N 59°42' E 023°56'1111.3
2014-Apr-17 21:34N 59°45' E 024°18'10 9.9
2014-Apr-17 20:33N 59°43' E 024°37'1111.2
2014-Apr-17 19:34N 59°35' E 024°53'4 0.1
2014-Apr-16 14:33N 59°31' E 024°57'9 9.1
2014-Apr-16 13:34N 59°39' E 024°49'1010.3
2014-Apr-16 12:33N 59°49' E 024°56'4410.9
2014-Apr-16 08:33N 59°59' E 026°20'1010.0
2014-Apr-16 07:33N 60°01' E 026°40'  

Dump ship's entire track history

sailing weather and tide predictions

Delta Pioneer — SYIO — position and weather